createdAt,value
2018-06-18T00:00:31.496Z,16.61
2018-06-18T00:01:41.789Z,16.68
2018-06-18T00:02:51.941Z,16.56
2018-06-18T00:04:02.153Z,16.61
2018-06-18T00:05:12.143Z,16.66
2018-06-18T00:06:22.298Z,16.59
2018-06-18T00:07:32.408Z,16.56
2018-06-18T00:08:42.532Z,16.62
2018-06-18T00:09:52.694Z,16.54
2018-06-18T00:11:02.874Z,16.69
2018-06-18T00:12:13.058Z,16.68
2018-06-18T00:13:23.252Z,16.64
2018-06-18T00:14:33.424Z,16.51
2018-06-18T00:15:43.414Z,16.61
2018-06-18T00:16:53.575Z,16.53
2018-06-18T00:18:04.035Z,16.53
2018-06-18T00:19:14.179Z,16.46
2018-06-18T00:20:24.326Z,16.49
2018-06-18T00:21:34.506Z,16.56
2018-06-18T00:22:44.705Z,16.56
2018-06-18T00:23:54.845Z,16.61
2018-06-18T00:25:05.006Z,16.56
2018-06-18T00:26:15.139Z,16.56
2018-06-18T00:27:25.271Z,16.51
2018-06-18T00:28:35.462Z,16.57
2018-06-18T00:29:45.654Z,16.51
2018-06-18T00:30:55.839Z,16.5
2018-06-18T00:32:05.953Z,16.53
2018-06-18T00:33:16.123Z,16.65
2018-06-18T00:34:26.461Z,16.62
2018-06-18T00:35:36.658Z,16.53
2018-06-18T00:36:46.828Z,16.59
2018-06-18T00:37:57.030Z,16.56
2018-06-18T00:39:07.321Z,16.56
2018-06-18T00:40:17.472Z,16.51
2018-06-18T00:41:27.678Z,16.5
2018-06-18T00:42:37.806Z,16.51
2018-06-18T00:43:47.926Z,16.46
2018-06-18T00:44:57.697Z,16.38
2018-06-18T00:46:07.880Z,16.49
2018-06-18T00:47:17.841Z,16.46
2018-06-18T00:48:27.994Z,16.39
2018-06-18T00:49:38.128Z,16.43
2018-06-18T00:50:48.300Z,16.44
2018-06-18T00:51:58.446Z,16.46
2018-06-18T00:53:08.624Z,16.44
2018-06-18T00:54:18.782Z,16.43
2018-06-18T00:55:28.959Z,16.42
2018-06-18T00:56:39.175Z,16.44
2018-06-18T00:57:49.430Z,16.46
2018-06-18T00:58:59.307Z,16.47
2018-06-18T01:00:09.440Z,16.47
2018-06-18T01:01:19.598Z,16.53
2018-06-18T01:02:29.798Z,16.5
2018-06-18T01:03:39.928Z,16.49
2018-06-18T01:04:50.066Z,16.51
2018-06-18T01:06:00.194Z,16.46
2018-06-18T01:07:10.465Z,16.51
2018-06-18T01:08:20.619Z,16.56
2018-06-18T01:09:30.805Z,16.59
2018-06-18T01:10:40.991Z,16.59
2018-06-18T01:11:51.166Z,16.56
2018-06-18T01:13:01.366Z,16.57
2018-06-18T01:14:11.591Z,16.57
2018-06-18T01:15:21.795Z,16.53
2018-06-18T01:16:31.968Z,16.49
2018-06-18T01:17:42.285Z,16.49
2018-06-18T01:18:52.664Z,16.46
2018-06-18T01:20:02.792Z,16.38
2018-06-18T01:21:12.938Z,16.39
2018-06-18T01:22:23.119Z,16.46
2018-06-18T01:23:33.331Z,16.27
2018-06-18T01:24:43.515Z,16.21
2018-06-18T01:25:53.817Z,16.25
2018-06-18T01:27:04.167Z,16.25
2018-06-18T01:28:14.329Z,16.16
2018-06-18T01:29:24.468Z,16.16
2018-06-18T01:30:34.668Z,16.16
2018-06-18T01:31:44.888Z,16.07
2018-06-18T01:32:55.129Z,15.96
2018-06-18T01:34:05.294Z,15.95
2018-06-18T01:35:15.518Z,15.95
2018-06-18T01:36:25.697Z,15.87
2018-06-18T01:37:35.889Z,15.84
2018-06-18T01:38:46.277Z,15.89
2018-06-18T01:39:56.467Z,15.84
2018-06-18T01:41:06.656Z,15.95
2018-06-18T01:42:16.912Z,15.94
2018-06-18T01:43:27.121Z,15.94
2018-06-18T01:44:37.332Z,15.98
2018-06-18T01:45:47.597Z,16.02
2018-06-18T01:46:57.760Z,15.96
2018-06-18T01:48:08.009Z,15.99
2018-06-18T01:49:18.299Z,15.94
2018-06-18T01:50:28.471Z,15.99
2018-06-18T01:51:38.608Z,16.01
2018-06-18T01:52:49.090Z,15.99
2018-06-18T01:53:59.218Z,16.02
2018-06-18T01:55:09.366Z,15.98
2018-06-18T01:56:19.579Z,15.95
2018-06-18T01:57:29.817Z,15.98
2018-06-18T01:58:40.033Z,16.01
2018-06-18T01:59:49.941Z,15.96
2018-06-18T02:01:00.079Z,16.02
2018-06-18T02:02:10.218Z,16.01
2018-06-18T02:03:20.345Z,15.99
2018-06-18T02:04:30.550Z,16.02
2018-06-18T02:05:40.918Z,15.96
2018-06-18T02:06:51.054Z,15.98
2018-06-18T02:08:01.177Z,16.02
2018-06-18T02:09:11.509Z,15.99
2018-06-18T02:10:21.793Z,15.98
2018-06-18T02:11:31.993Z,16.04
2018-06-18T02:12:42.137Z,15.99
2018-06-18T02:13:52.350Z,15.92
2018-06-18T02:15:02.221Z,15.84
2018-06-18T02:16:11.935Z,15.8
2018-06-18T02:17:22.231Z,15.94
2018-06-18T02:18:32.352Z,15.88
2018-06-18T02:19:42.481Z,15.91
2018-06-18T02:20:52.627Z,15.89
2018-06-18T02:22:02.774Z,15.84
2018-06-18T02:23:12.919Z,15.89
2018-06-18T02:24:23.099Z,15.95
2018-06-18T02:25:33.227Z,15.91
2018-06-18T02:26:43.561Z,15.92
2018-06-18T02:27:53.691Z,15.94
2018-06-18T02:29:03.841Z,15.87
2018-06-18T02:30:14.080Z,15.92
2018-06-18T02:31:24.074Z,15.96
2018-06-18T02:32:34.229Z,15.89
2018-06-18T02:33:44.357Z,15.95
2018-06-18T02:34:54.489Z,15.94
2018-06-18T02:36:04.638Z,15.98
2018-06-18T02:37:14.787Z,15.92
2018-06-18T02:38:25.104Z,15.94
2018-06-18T02:39:35.361Z,16.01
2018-06-18T02:40:45.581Z,16.04
2018-06-18T02:41:56.017Z,16.04
2018-06-18T02:43:06.163Z,15.94
2018-06-18T02:44:16.307Z,15.95
2018-06-18T02:45:26.207Z,16.04
2018-06-18T02:46:36.360Z,16.07
2018-06-18T02:47:46.499Z,16.13
2018-06-18T02:48:56.730Z,16.09
2018-06-18T02:50:06.885Z,16.1
2018-06-18T02:51:17.129Z,16.09
2018-06-18T02:52:27.432Z,16.19
2018-06-18T02:53:37.565Z,16.13
2018-06-18T02:54:47.458Z,16.17
2018-06-18T02:55:57.585Z,16.21
2018-06-18T02:57:07.762Z,16.17
2018-06-18T02:58:17.923Z,16.2
2018-06-18T02:59:28.082Z,16.27
2018-06-18T03:00:38.072Z,16.25
2018-06-18T03:01:47.865Z,16.31
2018-06-18T03:02:58.064Z,16.27
2018-06-18T03:04:08.206Z,16.27
2018-06-18T03:05:18.346Z,16.17
2018-06-18T03:06:28.431Z,16.25
2018-06-18T03:07:38.315Z,16.2
2018-06-18T03:08:48.453Z,16.2
2018-06-18T03:09:58.641Z,16.19
2018-06-18T03:11:08.632Z,16.19
2018-06-18T03:12:18.764Z,16.2
2018-06-18T03:13:28.670Z,16.17
2018-06-18T03:14:38.822Z,16.21
2018-06-18T03:15:49.212Z,16.19
2018-06-18T03:16:59.373Z,16.19
2018-06-18T03:18:09.531Z,16.13
2018-06-18T03:19:19.742Z,16.17
2018-06-18T03:20:29.967Z,16.17
2018-06-18T03:21:40.148Z,16.21
2018-06-18T03:22:50.265Z,16.27
2018-06-18T03:24:00.423Z,16.25
2018-06-18T03:25:10.305Z,16.21
2018-06-18T03:26:20.453Z,16.29
2018-06-18T03:27:30.573Z,16.27
2018-06-18T03:28:40.736Z,16.29
2018-06-18T03:29:50.906Z,16.27
2018-06-18T03:31:01.081Z,16.21
2018-06-18T03:32:11.249Z,16.32
2018-06-18T03:33:21.381Z,16.32
2018-06-18T03:34:31.527Z,16.28
2018-06-18T03:35:41.761Z,16.29
2018-06-18T03:36:51.931Z,16.28
2018-06-18T03:38:02.089Z,16.29
2018-06-18T03:39:12.344Z,16.27
2018-06-18T03:40:22.488Z,16.28
2018-06-18T03:41:32.781Z,16.17
2018-06-18T03:42:42.977Z,16.2
2018-06-18T03:43:53.190Z,16.21
2018-06-18T03:45:03.464Z,16.21
2018-06-18T03:46:13.692Z,16.14
2018-06-18T03:47:23.860Z,16.17
2018-06-18T03:48:33.739Z,16.14
2018-06-18T03:49:43.883Z,16.16
2018-06-18T03:50:54.047Z,16.14
2018-06-18T03:52:04.179Z,16.11
2018-06-18T03:53:14.396Z,16.14
2018-06-18T03:54:24.762Z,16.16
2018-06-18T03:55:35.164Z,16.2
2018-06-18T03:56:45.368Z,16.24
2018-06-18T03:57:56.482Z,16.09
2018-06-18T03:59:06.672Z,16.17
2018-06-18T04:00:16.803Z,16.17
2018-06-18T04:01:26.931Z,16.25
2018-06-18T04:02:36.842Z,16.21
2018-06-18T04:03:47.008Z,16.14
2018-06-18T04:04:57.337Z,16.19
2018-06-18T04:06:07.301Z,16.07
2018-06-18T04:07:17.565Z,16.16
2018-06-18T04:08:27.964Z,16.09
2018-06-18T04:09:38.175Z,16.17
2018-06-18T04:10:48.305Z,16.09
2018-06-18T04:11:58.664Z,16.17
2018-06-18T04:13:08.808Z,16.13
2018-06-18T04:14:18.883Z,16.06
2018-06-18T04:15:29.202Z,16.16
2018-06-18T04:16:39.579Z,16.16
2018-06-18T04:17:49.474Z,16.21
2018-06-18T04:18:59.619Z,16.14
2018-06-18T04:20:09.494Z,16.14
2018-06-18T04:21:19.659Z,16.16
2018-06-18T04:22:29.920Z,16.13
2018-06-18T04:23:40.312Z,16.13
2018-06-18T04:24:50.647Z,16.11
2018-06-18T04:26:01.003Z,16.1
2018-06-18T04:27:10.879Z,16.14
2018-06-18T04:28:20.999Z,16.06
2018-06-18T04:29:31.138Z,16.11
2018-06-18T04:30:41.290Z,16.19
2018-06-18T04:31:51.518Z,16.11
2018-06-18T04:33:01.646Z,16.24
2018-06-18T04:34:11.298Z,16.2
2018-06-18T04:35:21.189Z,16.2
2018-06-18T04:36:31.341Z,16.2
2018-06-18T04:37:41.757Z,16.19
2018-06-18T04:38:51.724Z,16.19
2018-06-18T04:40:01.919Z,16.19
2018-06-18T04:41:12.086Z,16.16
2018-06-18T04:42:22.228Z,16.27
2018-06-18T04:43:32.581Z,16.27
2018-06-18T04:44:42.913Z,16.24
2018-06-18T04:45:53.173Z,16.21
2018-06-18T04:47:03.361Z,16.34
2018-06-18T04:48:13.815Z,16.38
2018-06-18T04:49:24.149Z,16.32
2018-06-18T04:50:34.309Z,16.42
2018-06-18T04:51:44.697Z,16.47
2018-06-18T04:52:54.817Z,16.42
2018-06-18T04:54:04.697Z,16.36
2018-06-18T04:55:14.844Z,16.44
2018-06-18T04:56:25.235Z,16.36
2018-06-18T04:57:35.686Z,16.43
2018-06-18T04:58:45.946Z,16.43
2018-06-18T04:59:56.162Z,16.51
2018-06-18T05:01:06.603Z,16.47
2018-06-18T05:02:16.740Z,16.54
2018-06-18T05:03:27.121Z,16.61
2018-06-18T05:04:37.272Z,16.59
2018-06-18T05:05:47.401Z,16.66
2018-06-18T05:06:57.532Z,16.66
2018-06-18T05:08:08.721Z,16.71
2018-06-18T05:09:18.874Z,16.71
2018-06-18T05:10:29.019Z,16.74
2018-06-18T05:11:39.197Z,16.76
2018-06-18T05:12:49.583Z,16.8
2018-06-18T05:13:59.929Z,16.74
2018-06-18T05:15:10.147Z,16.72
2018-06-18T05:16:20.332Z,16.75
2018-06-18T05:17:30.484Z,16.76
2018-06-18T05:18:41.644Z,16.9
2018-06-18T05:19:52.053Z,16.82
2018-06-18T05:21:02.247Z,16.9
2018-06-18T05:22:12.378Z,16.91
2018-06-18T05:23:22.548Z,16.99
2018-06-18T05:24:32.691Z,17.02
2018-06-18T05:25:42.962Z,17.04
2018-06-18T05:26:53.106Z,17.08
2018-06-18T05:28:03.282Z,16.98
2018-06-18T05:29:13.427Z,17.11
2018-06-18T05:30:23.598Z,17.09
2018-06-18T05:31:33.769Z,17.08
2018-06-18T05:32:43.911Z,17.2
2018-06-18T05:33:56.105Z,17.19
2018-06-18T05:35:07.278Z,17.17
2018-06-18T05:36:19.903Z,17.23
2018-06-18T05:37:30.054Z,17.24
2018-06-18T05:38:40.239Z,17.21
2018-06-18T05:39:50.514Z,17.05
2018-06-18T05:41:00.679Z,17.01
2018-06-18T05:42:10.841Z,17.09
2018-06-18T05:43:21.179Z,17.14
2018-06-18T05:44:31.461Z,17.05
2018-06-18T05:45:41.594Z,16.98
2018-06-18T05:46:51.738Z,16.94
2018-06-18T05:48:01.869Z,16.86
2018-06-18T05:49:12.067Z,16.89
2018-06-18T05:50:22.335Z,16.94
2018-06-18T05:51:32.711Z,16.9
2018-06-18T05:52:42.977Z,16.91
2018-06-18T05:53:53.185Z,16.96
2018-06-18T05:55:03.380Z,16.96
2018-06-18T05:56:12.915Z,16.91
2018-06-18T05:57:23.051Z,16.86
2018-06-18T05:58:33.327Z,16.84
2018-06-18T05:59:43.676Z,16.82
2018-06-18T06:00:53.840Z,16.84
2018-06-18T06:02:03.663Z,16.89
2018-06-18T06:03:13.858Z,16.86
2018-06-18T06:04:24.005Z,16.91
2018-06-18T06:05:34.137Z,16.98
2018-06-18T06:06:44.289Z,16.99
2018-06-18T06:07:54.444Z,17.08
2018-06-18T06:09:04.631Z,17.09
2018-06-18T06:10:14.834Z,17.21
2018-06-18T06:11:25.046Z,17.3
2018-06-18T06:12:35.291Z,17.28
2018-06-18T06:13:46.122Z,17.38
2018-06-18T06:14:56.260Z,17.45
2018-06-18T06:16:06.505Z,17.4
2018-06-18T06:17:16.678Z,17.46
2018-06-18T06:18:26.917Z,17.46
2018-06-18T06:19:37.067Z,17.46
2018-06-18T06:20:47.260Z,17.47
2018-06-18T06:21:57.446Z,17.61
2018-06-18T06:23:07.607Z,17.65
2018-06-18T06:24:17.177Z,17.58
2018-06-18T06:25:27.550Z,17.58
2018-06-18T06:26:37.909Z,17.64
2018-06-18T06:27:48.223Z,17.62
2018-06-18T06:28:58.415Z,17.6
2018-06-18T06:30:08.612Z,17.67
2018-06-18T06:31:18.812Z,17.61
2018-06-18T06:32:29.005Z,17.61
2018-06-18T06:33:39.297Z,17.52
2018-06-18T06:34:49.466Z,17.47
2018-06-18T06:35:59.400Z,17.49
2018-06-18T06:37:09.564Z,17.46
2018-06-18T06:38:19.713Z,17.38
2018-06-18T06:39:29.919Z,17.32
2018-06-18T06:40:39.949Z,17.21
2018-06-18T06:41:50.094Z,17.2
2018-06-18T06:43:00.230Z,17.23
2018-06-18T06:44:10.409Z,17.31
2018-06-18T06:45:20.611Z,17.28
2018-06-18T06:46:30.796Z,17.24
2018-06-18T06:47:40.944Z,17.27
2018-06-18T06:48:51.395Z,17.36
2018-06-18T06:50:01.766Z,17.3
2018-06-18T06:51:11.986Z,17.38
2018-06-18T06:52:22.164Z,17.46
2018-06-18T06:53:32.515Z,17.5
2018-06-18T06:54:42.761Z,17.61
2018-06-18T06:55:53.013Z,17.61
2018-06-18T06:57:02.950Z,17.54
2018-06-18T06:58:14.102Z,17.49
2018-06-18T06:59:24.249Z,17.47
2018-06-18T07:00:34.430Z,17.47
2018-06-18T07:01:44.764Z,17.43
2018-06-18T07:02:54.935Z,17.46
2018-06-18T07:04:05.089Z,17.55
2018-06-18T07:05:15.320Z,17.64
2018-06-18T07:06:25.278Z,17.55
2018-06-18T07:07:35.424Z,17.58
2018-06-18T07:08:45.647Z,17.64
2018-06-18T07:09:55.802Z,17.58
2018-06-18T07:11:05.972Z,17.72
2018-06-18T07:12:16.209Z,17.73
2018-06-18T07:13:26.542Z,17.76
2018-06-18T07:14:37.009Z,17.77
2018-06-18T07:15:47.231Z,17.76
2018-06-18T07:16:57.509Z,17.86
2018-06-18T07:18:07.784Z,17.77
2018-06-18T07:19:17.581Z,17.86
2018-06-18T07:20:27.727Z,17.87
2018-06-18T07:21:38.077Z,17.89
2018-06-18T07:22:48.231Z,17.89
2018-06-18T07:23:58.468Z,17.89
2018-06-18T07:25:08.396Z,17.85
2018-06-18T07:26:18.838Z,17.94
2018-06-18T07:27:29.104Z,17.92
2018-06-18T07:28:39.228Z,17.92
2018-06-18T07:29:49.423Z,17.98
2018-06-18T07:30:59.845Z,18.01
2018-06-18T07:32:09.967Z,18
2018-06-18T07:33:20.303Z,17.98
2018-06-18T07:34:30.424Z,18.01
2018-06-18T07:35:40.574Z,18.1
2018-06-18T07:36:51.741Z,18.17
2018-06-18T07:38:01.908Z,18.26
2018-06-18T07:39:12.082Z,18.37
2018-06-18T07:40:22.286Z,18.4
2018-06-18T07:41:32.454Z,18.44
2018-06-18T07:42:42.624Z,18.56
2018-06-18T07:43:52.787Z,18.67
2018-06-18T07:45:02.941Z,18.71
2018-06-18T07:46:13.146Z,18.79
2018-06-18T07:47:23.329Z,18.87
2018-06-18T07:48:33.565Z,18.94
2018-06-18T07:49:43.790Z,19.05
2018-06-18T07:50:54.062Z,19.09
2018-06-18T07:52:04.317Z,19.19
2018-06-18T07:53:14.509Z,19.3
2018-06-18T07:54:24.680Z,19.42
2018-06-18T07:55:34.832Z,19.52
2018-06-18T07:56:44.998Z,19.65
2018-06-18T07:57:55.178Z,19.74
2018-06-18T07:59:05.338Z,19.85
2018-06-18T08:00:15.557Z,19.82
2018-06-18T08:01:25.715Z,19.88
2018-06-18T08:02:35.899Z,19.9
2018-06-18T08:03:46.170Z,19.98
2018-06-18T08:04:56.362Z,19.98
2018-06-18T08:06:06.510Z,20.05
2018-06-18T08:07:16.920Z,20.2
2018-06-18T08:08:26.807Z,20.14
2018-06-18T08:09:37.065Z,20.08
2018-06-18T08:10:47.415Z,20.05
2018-06-18T08:11:57.597Z,20.11
2018-06-18T08:13:07.917Z,20.17
2018-06-18T08:14:18.077Z,20.31
2018-06-18T08:15:30.587Z,20.3
2018-06-18T08:16:40.392Z,20.35
2018-06-18T08:17:50.571Z,20.38
2018-06-18T08:19:00.747Z,20.35
2018-06-18T08:20:11.081Z,20.39
2018-06-18T08:21:22.514Z,20.41
2018-06-18T08:22:33.860Z,20.51
2018-06-18T08:23:44.216Z,20.48
2018-06-18T08:24:54.495Z,20.72
2018-06-18T08:26:04.686Z,20.79
2018-06-18T08:27:14.941Z,20.81
2018-06-18T08:28:25.533Z,20.96
2018-06-18T08:29:35.700Z,20.98
2018-06-18T08:30:45.838Z,21.06
2018-06-18T08:31:56.055Z,21.12
2018-06-18T08:33:06.206Z,21.16
2018-06-18T08:34:16.377Z,21.13
2018-06-18T08:35:26.707Z,21.2
2018-06-18T08:36:37.004Z,21.27
2018-06-18T08:37:47.194Z,21.31
2018-06-18T08:38:57.378Z,21.34
2018-06-18T08:40:07.687Z,21.33
2018-06-18T08:41:18.055Z,21.19
2018-06-18T08:42:28.208Z,21.2
2018-06-18T08:43:38.387Z,21.23
2018-06-18T08:44:48.589Z,21.33
2018-06-18T08:45:58.756Z,21.34
2018-06-18T08:47:08.998Z,21.34
2018-06-18T08:48:19.177Z,21.28
2018-06-18T08:49:29.415Z,21.33
2018-06-18T08:50:39.786Z,21.3
2018-06-18T08:51:50.068Z,21.35
2018-06-18T08:53:00.204Z,21.43
2018-06-18T08:54:10.346Z,21.37
2018-06-18T08:55:20.534Z,21.57
2018-06-18T08:56:30.850Z,21.64
2018-06-18T08:57:40.780Z,21.66
2018-06-18T08:58:51.094Z,21.73
2018-06-18T09:00:01.403Z,21.79
2018-06-18T09:01:11.667Z,21.75
2018-06-18T09:02:21.575Z,21.91
2018-06-18T09:03:31.767Z,22.06
2018-06-18T09:04:42.149Z,22.09
2018-06-18T09:05:52.300Z,22.2
2018-06-18T09:07:02.449Z,22.33
2018-06-18T09:08:12.695Z,22.58
2018-06-18T09:09:22.870Z,22.63
2018-06-18T09:10:33.128Z,22.75
2018-06-18T09:11:43.388Z,22.83
2018-06-18T09:12:53.595Z,23.08
2018-06-18T09:14:03.747Z,23.32
2018-06-18T09:15:14.190Z,23.61
2018-06-18T09:16:24.376Z,23.75
2018-06-18T09:17:34.526Z,23.88
2018-06-18T09:18:44.673Z,23.87
2018-06-18T09:19:54.836Z,23.87
2018-06-18T09:21:05.139Z,23.97
2018-06-18T09:22:15.277Z,24.06
2018-06-18T09:23:26.399Z,24.07
2018-06-18T09:24:36.676Z,24.16
2018-06-18T09:25:47.046Z,24.48
2018-06-18T09:26:57.244Z,24.8
2018-06-18T09:28:07.435Z,25.07
2018-06-18T09:29:17.637Z,25.27
2018-06-18T09:30:27.814Z,25.54
2018-06-18T09:31:37.985Z,25.84
2018-06-18T09:32:48.367Z,26.18
2018-06-18T09:33:58.522Z,26.37
2018-06-18T09:35:08.699Z,26.43
2018-06-18T09:36:18.945Z,26.31
2018-06-18T09:37:29.142Z,26.27
2018-06-18T09:38:39.352Z,26
2018-06-18T09:39:49.519Z,25.96
2018-06-18T09:40:59.711Z,26
2018-06-18T09:42:09.956Z,26
2018-06-18T09:43:20.172Z,25.77
2018-06-18T09:44:30.415Z,25.94
2018-06-18T09:45:40.293Z,26.11
2018-06-18T09:46:50.490Z,26.29
2018-06-18T09:48:00.721Z,26.4
2018-06-18T09:49:11.011Z,26.34
2018-06-18T09:50:21.178Z,26.43
2018-06-18T09:51:31.353Z,26.48
2018-06-18T09:52:41.499Z,26.55
2018-06-18T09:53:51.717Z,26.77
2018-06-18T09:55:01.919Z,27.03
2018-06-18T09:56:11.876Z,27.31
2018-06-18T09:57:22.054Z,27.53
2018-06-18T09:58:32.252Z,27.48
2018-06-18T09:59:42.469Z,27.35
2018-06-18T10:00:52.662Z,27.28
2018-06-18T10:02:02.840Z,27.11
2018-06-18T10:03:13.051Z,26.9
2018-06-18T10:04:22.951Z,26.83
2018-06-18T10:05:32.779Z,26.93
2018-06-18T10:06:42.997Z,27.14
2018-06-18T10:07:53.180Z,27.17
2018-06-18T10:09:03.625Z,27.07
2018-06-18T10:10:13.825Z,27.03
2018-06-18T10:11:24.025Z,27.1
2018-06-18T10:12:34.247Z,26.9
2018-06-18T10:13:44.649Z,26.48
2018-06-18T10:14:54.816Z,26.31
2018-06-18T10:16:04.986Z,26.24
2018-06-18T10:17:15.326Z,26.03
2018-06-18T10:18:25.531Z,25.84
2018-06-18T10:19:35.705Z,25.81
2018-06-18T10:20:45.915Z,25.9
2018-06-18T10:21:56.107Z,25.88
2018-06-18T10:23:06.278Z,25.73
2018-06-18T10:24:16.660Z,25.64
2018-06-18T10:25:27.227Z,25.64
2018-06-18T10:26:37.502Z,25.65
2018-06-18T10:27:47.667Z,25.85
2018-06-18T10:28:57.857Z,26.02
2018-06-18T10:30:08.105Z,26.18
2018-06-18T10:31:18.310Z,26.06
2018-06-18T10:32:28.619Z,26.37
2018-06-18T10:33:38.816Z,26.78
2018-06-18T10:34:49.096Z,26.9
2018-06-18T10:35:59.263Z,26.55
2018-06-18T10:37:09.455Z,26.16
2018-06-18T10:38:19.370Z,25.66
2018-06-18T10:39:29.533Z,25.43
2018-06-18T10:40:39.742Z,25.32
2018-06-18T10:41:50.196Z,25.24
2018-06-18T10:43:00.410Z,25.15
2018-06-18T10:44:10.829Z,25.28
2018-06-18T10:45:21.032Z,25.49
2018-06-18T10:46:31.222Z,25.68
2018-06-18T10:47:41.516Z,26.04
2018-06-18T10:48:51.722Z,26.45
2018-06-18T10:50:02.035Z,26.64
2018-06-18T10:51:12.228Z,26.85
2018-06-18T10:52:22.398Z,27.17
2018-06-18T10:53:32.569Z,27.27
2018-06-18T10:54:42.882Z,27.33
2018-06-18T10:55:52.697Z,27.27
2018-06-18T10:57:03.048Z,26.82
2018-06-18T10:58:13.946Z,26.45
2018-06-18T10:59:24.143Z,26.12
2018-06-18T11:00:34.539Z,25.74
2018-06-18T11:01:44.998Z,25.29
2018-06-18T11:02:55.290Z,25.1
2018-06-18T11:04:05.612Z,24.78
2018-06-18T11:05:15.814Z,24.58
2018-06-18T11:06:26.094Z,24.47
2018-06-18T11:07:36.294Z,24.16
2018-06-18T11:08:46.435Z,24.24
2018-06-18T11:09:56.719Z,24.51
2018-06-18T11:11:06.904Z,24.69
2018-06-18T11:12:17.145Z,24.95
2018-06-18T11:13:27.329Z,25.15
2018-06-18T11:14:37.510Z,25.61
2018-06-18T11:15:47.794Z,25.88
2018-06-18T11:16:59.180Z,26.03
2018-06-18T11:18:10.868Z,26.16
2018-06-18T11:19:21.058Z,26.22
2018-06-18T11:20:31.225Z,26.16
2018-06-18T11:21:41.336Z,26
2018-06-18T11:22:51.736Z,25.69
2018-06-18T11:24:02.041Z,25.36
2018-06-18T11:25:12.334Z,25.29
2018-06-18T11:26:22.527Z,25.15
2018-06-18T11:27:32.916Z,25.32
2018-06-18T11:28:43.478Z,25.19
2018-06-18T11:29:53.972Z,25.15
2018-06-18T11:31:04.255Z,25.27
2018-06-18T11:32:14.555Z,25.32
2018-06-18T11:33:24.870Z,25.46
2018-06-18T11:34:35.210Z,25.52
2018-06-18T11:35:45.725Z,25.5
2018-06-18T11:36:56.121Z,25.43
2018-06-18T11:38:06.290Z,25.43
2018-06-18T11:39:16.917Z,25.39
2018-06-18T11:40:27.366Z,25.31
2018-06-18T11:41:37.634Z,25.22
2018-06-18T11:42:48.166Z,25.28
2018-06-18T11:43:58.410Z,25.31
2018-06-18T11:45:08.605Z,25.21
2018-06-18T11:46:18.814Z,25.02
2018-06-18T11:47:28.971Z,24.75
2018-06-18T11:48:39.157Z,24.67
2018-06-18T11:49:49.376Z,24.54
2018-06-18T11:50:59.551Z,24.35
2018-06-18T11:52:09.727Z,24.24
2018-06-18T11:53:19.887Z,24.15
2018-06-18T11:54:30.254Z,24.13
2018-06-18T11:55:40.514Z,24.12
2018-06-18T11:56:50.540Z,24.15
2018-06-18T11:58:00.720Z,24.22
2018-06-18T11:59:10.915Z,24.31
2018-06-18T12:00:21.112Z,24.5
2018-06-18T12:01:31.482Z,24.62
2018-06-18T12:02:41.915Z,24.55
2018-06-18T12:03:53.219Z,24.62
2018-06-18T12:05:03.517Z,24.65
2018-06-18T12:06:13.693Z,24.58
2018-06-18T12:07:23.926Z,24.57
2018-06-18T12:08:33.879Z,24.51
2018-06-18T12:09:44.519Z,24.63
2018-06-18T12:10:55.021Z,24.66
2018-06-18T12:12:05.220Z,24.78
2018-06-18T12:13:15.484Z,24.9
2018-06-18T12:14:25.739Z,24.94
2018-06-18T12:15:35.922Z,24.85
2018-06-18T12:16:46.268Z,25.07
2018-06-18T12:17:56.786Z,25.07
2018-06-18T12:19:06.972Z,25.12
2018-06-18T12:20:16.921Z,25.17
2018-06-18T12:21:27.107Z,25.17
2018-06-18T12:22:37.352Z,25.22
2018-06-18T12:23:47.527Z,25.21
2018-06-18T12:24:57.802Z,25.24
2018-06-18T12:26:07.953Z,25.22
2018-06-18T12:27:18.125Z,25.21
2018-06-18T12:28:28.520Z,25.12
2018-06-18T12:29:38.712Z,24.99
2018-06-18T12:30:48.874Z,25
2018-06-18T12:31:59.064Z,25.03
2018-06-18T12:33:09.453Z,24.94
2018-06-18T12:34:19.885Z,24.97
2018-06-18T12:35:30.373Z,25.02
2018-06-18T12:36:40.569Z,24.92
2018-06-18T12:37:50.782Z,24.85
2018-06-18T12:39:00.999Z,24.75
2018-06-18T12:40:11.171Z,24.81
2018-06-18T12:41:21.857Z,24.78
2018-06-18T12:42:32.241Z,24.78
2018-06-18T12:43:42.454Z,24.81
2018-06-18T12:44:52.617Z,24.94
2018-06-18T12:46:02.814Z,24.92
2018-06-18T12:47:12.990Z,24.92
2018-06-18T12:48:26.015Z,24.95
2018-06-18T12:49:37.149Z,24.87
2018-06-18T12:50:47.460Z,24.95
2018-06-18T12:51:57.704Z,24.85
2018-06-18T12:53:07.976Z,24.84
2018-06-18T12:54:18.237Z,24.84
2018-06-18T12:55:28.444Z,24.92
2018-06-18T12:56:38.647Z,24.95
2018-06-18T12:57:48.820Z,25
2018-06-18T12:58:59.011Z,24.99
2018-06-18T13:00:09.297Z,25
2018-06-18T13:01:19.582Z,24.84
2018-06-18T13:02:29.742Z,24.67
2018-06-18T13:03:39.969Z,24.63
2018-06-18T13:04:50.171Z,24.43
2018-06-18T13:06:00.383Z,24.29
2018-06-18T13:07:10.545Z,24.24
2018-06-18T13:08:20.763Z,24.22
2018-06-18T13:09:30.960Z,24.1
2018-06-18T13:10:41.198Z,24.06
2018-06-18T13:11:51.438Z,23.92
2018-06-18T13:13:01.737Z,23.75
2018-06-18T13:14:11.934Z,23.53
2018-06-18T13:15:22.129Z,23.53
2018-06-18T13:16:32.529Z,23.45
2018-06-18T13:17:42.773Z,23.46
2018-06-18T13:18:52.939Z,23.4
2018-06-18T13:20:03.140Z,23.48
2018-06-18T13:21:13.326Z,23.42
2018-06-18T13:22:23.534Z,23.39
2018-06-18T13:23:33.752Z,23.31
2018-06-18T13:24:43.934Z,23.27
2018-06-18T13:25:54.250Z,23.31
2018-06-18T13:27:04.442Z,23.17
2018-06-18T13:28:14.621Z,23.18
2018-06-18T13:29:24.851Z,23.28
2018-06-18T13:30:35.151Z,23.18
2018-06-18T13:31:45.536Z,23.24
2018-06-18T13:32:55.710Z,23.23
2018-06-18T13:34:05.537Z,23.25
2018-06-18T13:35:15.851Z,23.39
2018-06-18T13:36:26.148Z,23.43
2018-06-18T13:37:36.482Z,23.39
2018-06-18T13:38:46.907Z,23.38
2018-06-18T13:39:57.185Z,23.32
2018-06-18T13:41:07.406Z,23.36
2018-06-18T13:42:17.801Z,23.38
2018-06-18T13:43:28.026Z,23.38
2018-06-18T13:44:38.196Z,23.45
2018-06-18T13:45:48.416Z,23.54
2018-06-18T13:46:58.332Z,23.57
2018-06-18T13:48:08.491Z,23.75
2018-06-18T13:49:18.717Z,23.77
2018-06-18T13:50:28.920Z,23.82
2018-06-18T13:51:38.938Z,23.8
2018-06-18T13:52:49.801Z,23.77
2018-06-18T13:54:00.276Z,23.94
2018-06-18T13:55:10.456Z,23.98
2018-06-18T13:56:20.826Z,23.92
2018-06-18T13:57:31.059Z,23.94
2018-06-18T13:58:41.552Z,23.87
2018-06-18T13:59:51.760Z,23.83
2018-06-18T14:01:02.009Z,23.77
2018-06-18T14:02:12.198Z,23.8
2018-06-18T14:03:22.180Z,23.8
2018-06-18T14:04:32.377Z,23.75
2018-06-18T14:05:42.632Z,23.69
2018-06-18T14:06:52.870Z,23.7
2018-06-18T14:08:03.101Z,23.73
2018-06-18T14:09:13.275Z,23.72
2018-06-18T14:10:23.606Z,23.53
2018-06-18T14:11:33.800Z,23.42
2018-06-18T14:12:44.206Z,23.42
2018-06-18T14:13:54.712Z,23.42
2018-06-18T14:15:05.043Z,23.33
2018-06-18T14:16:15.231Z,23.43
2018-06-18T14:17:25.466Z,23.33
2018-06-18T14:18:35.681Z,23.35
2018-06-18T14:19:46.041Z,23.23
2018-06-18T14:20:56.565Z,23.18
2018-06-18T14:22:06.502Z,23.17
2018-06-18T14:23:16.980Z,23.17
2018-06-18T14:24:27.134Z,23.06
2018-06-18T14:25:37.338Z,23.09
2018-06-18T14:26:47.537Z,23.14
2018-06-18T14:27:57.823Z,23.14
2018-06-18T14:29:08.108Z,23.2
2018-06-18T14:30:18.299Z,23.17
2018-06-18T14:31:28.502Z,23.2
2018-06-18T14:32:38.820Z,23.18
2018-06-18T14:33:49.073Z,23.18
2018-06-18T14:34:59.229Z,23.2
2018-06-18T14:36:09.525Z,23.23
2018-06-18T14:37:19.916Z,23.21
2018-06-18T14:38:30.163Z,23.31
2018-06-18T14:39:40.431Z,23.35
2018-06-18T14:40:50.623Z,23.31
2018-06-18T14:42:00.995Z,23.38
2018-06-18T14:43:11.276Z,23.33
2018-06-18T14:44:21.691Z,23.39
2018-06-18T14:45:31.937Z,23.39
2018-06-18T14:46:42.006Z,23.28
2018-06-18T14:47:52.296Z,23.23
2018-06-18T14:49:02.503Z,23.33
2018-06-18T14:50:12.648Z,23.21
2018-06-18T14:51:22.962Z,23.31
2018-06-18T14:52:33.790Z,23.35
2018-06-18T14:53:44.105Z,23.4
2018-06-18T14:54:54.330Z,23.38
2018-06-18T14:56:04.642Z,23.35
2018-06-18T14:57:15.231Z,23.39
2018-06-18T14:58:25.589Z,23.33
2018-06-18T14:59:36.003Z,23.4
2018-06-18T15:00:46.528Z,23.36
2018-06-18T15:01:56.841Z,23.36
2018-06-18T15:03:07.202Z,23.21
2018-06-18T15:04:17.776Z,23.18
2018-06-18T15:05:28.204Z,23.21
2018-06-18T15:06:38.628Z,23.17
2018-06-18T15:07:48.804Z,23.18